sensor_id;sensor_type;location;lat;lon;timestamp;temperature;humidity
20946;DHT22;10632;51.276;7.116;2023-09-30T00:02:03;12.50;99.90
20946;DHT22;10632;51.276;7.116;2023-09-30T00:04:32;12.50;99.90
20946;DHT22;10632;51.276;7.116;2023-09-30T00:06:59;12.50;99.90
20946;DHT22;10632;51.276;7.116;2023-09-30T00:09:26;12.50;99.90
20946;DHT22;10632;51.276;7.116;2023-09-30T00:11:53;12.40;99.90
20946;DHT22;10632;51.276;7.116;2023-09-30T00:14:21;12.40;99.90
20946;DHT22;10632;51.276;7.116;2023-09-30T00:16:48;12.40;99.90
20946;DHT22;10632;51.276;7.116;2023-09-30T00:19:16;12.40;99.90
20946;DHT22;10632;51.276;7.116;2023-09-30T00:21:44;12.40;99.90
20946;DHT22;10632;51.276;7.116;2023-09-30T00:24:14;12.50;99.90
20946;DHT22;10632;51.276;7.116;2023-09-30T00:26:41;12.40;99.90
20946;DHT22;10632;51.276;7.116;2023-09-30T00:29:07;12.50;99.90
20946;DHT22;10632;51.276;7.116;2023-09-30T00:31:35;12.40;99.90
20946;DHT22;10632;51.276;7.116;2023-09-30T00:34:02;12.50;99.90
20946;DHT22;10632;51.276;7.116;2023-09-30T00:36:30;12.50;99.90
20946;DHT22;10632;51.276;7.116;2023-09-30T00:38:58;12.40;99.90
20946;DHT22;10632;51.276;7.116;2023-09-30T00:41:25;12.50;99.90
20946;DHT22;10632;51.276;7.116;2023-09-30T00:43:52;12.50;99.90
20946;DHT22;10632;51.276;7.116;2023-09-30T00:46:26;12.50;99.90
20946;DHT22;10632;51.276;7.116;2023-09-30T00:48:54;12.50;99.90
20946;DHT22;10632;51.276;7.116;2023-09-30T00:51:22;12.40;99.90
20946;DHT22;10632;51.276;7.116;2023-09-30T00:53:50;12.50;99.90
20946;DHT22;10632;51.276;7.116;2023-09-30T00:56:18;12.40;99.90
20946;DHT22;10632;51.276;7.116;2023-09-30T00:58:48;12.40;99.90
20946;DHT22;10632;51.276;7.116;2023-09-30T01:01:17;12.40;99.90
20946;DHT22;10632;51.276;7.116;2023-09-30T01:03:45;12.40;99.90
20946;DHT22;10632;51.276;7.116;2023-09-30T01:06:12;12.30;99.90
20946;DHT22;10632;51.276;7.116;2023-09-30T01:08:40;12.30;99.90
20946;DHT22;10632;51.276;7.116;2023-09-30T01:11:08;12.30;99.90
20946;DHT22;10632;51.276;7.116;2023-09-30T01:13:37;12.20;99.90
20946;DHT22;10632;51.276;7.116;2023-09-30T01:16:05;12.20;99.90
20946;DHT22;10632;51.276;7.116;2023-09-30T01:18:32;12.20;99.90
20946;DHT22;10632;51.276;7.116;2023-09-30T01:21:02;12.20;99.90
20946;DHT22;10632;51.276;7.116;2023-09-30T01:23:32;12.30;99.90
20946;DHT22;10632;51.276;7.116;2023-09-30T01:26:01;12.20;99.90
20946;DHT22;10632;51.276;7.116;2023-09-30T01:28:29;12.20;99.90
20946;DHT22;10632;51.276;7.116;2023-09-30T01:30:56;12.10;99.90
20946;DHT22;10632;51.276;7.116;2023-09-30T01:33:23;12.20;99.90
20946;DHT22;10632;51.276;7.116;2023-09-30T01:35:50;12.20;99.90
20946;DHT22;10632;51.276;7.116;2023-09-30T01:38:17;12.20;99.90
20946;DHT22;10632;51.276;7.116;2023-09-30T01:40:45;12.20;99.90
20946;DHT22;10632;51.276;7.116;2023-09-30T01:43:12;12.20;99.90
20946;DHT22;10632;51.276;7.116;2023-09-30T01:45:39;12.20;99.90
20946;DHT22;10632;51.276;7.116;2023-09-30T01:48:06;12.20;99.90
20946;DHT22;10632;51.276;7.116;2023-09-30T01:50:39;12.20;99.90
20946;DHT22;10632;51.276;7.116;2023-09-30T01:53:07;12.20;99.90
20946;DHT22;10632;51.276;7.116;2023-09-30T01:55:35;12.10;99.90
20946;DHT22;10632;51.276;7.116;2023-09-30T01:58:03;12.10;99.90
20946;DHT22;10632;51.276;7.116;2023-09-30T02:00:30;12.10;99.90
20946;DHT22;10632;51.276;7.116;2023-09-30T02:02:58;12.10;99.90
20946;DHT22;10632;51.276;7.116;2023-09-30T02:05:25;12.10;99.90
20946;DHT22;10632;51.276;7.116;2023-09-30T02:07:52;12.10;99.90
20946;DHT22;10632;51.276;7.116;2023-09-30T02:10:20;12.10;99.90
20946;DHT22;10632;51.276;7.116;2023-09-30T02:12:47;12.10;99.90
20946;DHT22;10632;51.276;7.116;2023-09-30T02:15:15;12.20;99.90
20946;DHT22;10632;51.276;7.116;2023-09-30T02:17:42;12.20;99.90
20946;DHT22;10632;51.276;7.116;2023-09-30T02:20:12;12.20;99.90
20946;DHT22;10632;51.276;7.116;2023-09-30T02:22:42;12.20;99.90
20946;DHT22;10632;51.276;7.116;2023-09-30T02:25:10;12.20;99.90
20946;DHT22;10632;51.276;7.116;2023-09-30T02:27:38;12.20;99.90
20946;DHT22;10632;51.276;7.116;2023-09-30T02:30:08;12.20;99.90
20946;DHT22;10632;51.276;7.116;2023-09-30T02:32:38;12.20;99.90
20946;DHT22;10632;51.276;7.116;2023-09-30T02:35:06;12.20;99.90
20946;DHT22;10632;51.276;7.116;2023-09-30T02:37:33;12.20;99.90
20946;DHT22;10632;51.276;7.116;2023-09-30T02:40:02;12.20;99.90
20946;DHT22;10632;51.276;7.116;2023-09-30T02:42:35;12.20;99.90
20946;DHT22;10632;51.276;7.116;2023-09-30T02:45:02;12.10;99.90
20946;DHT22;10632;51.276;7.116;2023-09-30T02:47:29;12.10;99.90
20946;DHT22;10632;51.276;7.116;2023-09-30T02:49:58;12.10;99.90
20946;DHT22;10632;51.276;7.116;2023-09-30T02:52:25;12.10;99.90
20946;DHT22;10632;51.276;7.116;2023-09-30T02:54:54;12.00;99.90
20946;DHT22;10632;51.276;7.116;2023-09-30T02:57:22;11.90;99.90
20946;DHT22;10632;51.276;7.116;2023-09-30T02:59:49;11.90;99.90
20946;DHT22;10632;51.276;7.116;2023-09-30T03:02:17;11.90;99.90
20946;DHT22;10632;51.276;7.116;2023-09-30T03:04:44;11.80;99.90
20946;DHT22;10632;51.276;7.116;2023-09-30T03:07:13;11.80;99.90
20946;DHT22;10632;51.276;7.116;2023-09-30T03:09:40;11.80;99.90
20946;DHT22;10632;51.276;7.116;2023-09-30T03:12:07;11.80;99.90
20946;DHT22;10632;51.276;7.116;2023-09-30T03:14:35;11.80;99.90
20946;DHT22;10632;51.276;7.116;2023-09-30T03:17:02;11.70;99.90
20946;DHT22;10632;51.276;7.116;2023-09-30T03:19:30;11.70;99.90
20946;DHT22;10632;51.276;7.116;2023-09-30T03:21:56;11.70;99.90
20946;DHT22;10632;51.276;7.116;2023-09-30T03:24:25;11.80;99.90
20946;DHT22;10632;51.276;7.116;2023-09-30T03:26:52;11.80;99.90
20946;DHT22;10632;51.276;7.116;2023-09-30T03:29:19;11.80;99.90
20946;DHT22;10632;51.276;7.116;2023-09-30T03:31:47;11.80;99.90
20946;DHT22;10632;51.276;7.116;2023-09-30T03:34:14;11.80;99.90
20946;DHT22;10632;51.276;7.116;2023-09-30T03:36:42;11.80;99.90
20946;DHT22;10632;51.276;7.116;2023-09-30T03:39:09;11.90;99.90
20946;DHT22;10632;51.276;7.116;2023-09-30T03:41:42;11.90;99.90
20946;DHT22;10632;51.276;7.116;2023-09-30T03:44:09;11.90;99.90
20946;DHT22;10632;51.276;7.116;2023-09-30T03:46:36;11.90;99.90
20946;DHT22;10632;51.276;7.116;2023-09-30T03:49:03;11.80;99.90
20946;DHT22;10632;51.276;7.116;2023-09-30T03:51:34;11.80;99.90
20946;DHT22;10632;51.276;7.116;2023-09-30T03:54:02;11.70;99.90
20946;DHT22;10632;51.276;7.116;2023-09-30T03:56:30;11.80;99.90
20946;DHT22;10632;51.276;7.116;2023-09-30T03:58:58;11.70;99.90
20946;DHT22;10632;51.276;7.116;2023-09-30T04:01:25;11.70;99.90
20946;DHT22;10632;51.276;7.116;2023-09-30T04:03:52;11.70;99.90
20946;DHT22;10632;51.276;7.116;2023-09-30T04:06:21;11.70;99.90
20946;DHT22;10632;51.276;7.116;2023-09-30T04:08:49;11.70;99.90
20946;DHT22;10632;51.276;7.116;2023-09-30T04:11:17;11.70;99.90
20946;DHT22;10632;51.276;7.116;2023-09-30T04:13:46;11.70;99.90
20946;DHT22;10632;51.276;7.116;2023-09-30T04:16:14;11.80;99.90
20946;DHT22;10632;51.276;7.116;2023-09-30T04:18:44;11.70;99.90
20946;DHT22;10632;51.276;7.116;2023-09-30T04:21:11;11.80;99.90
20946;DHT22;10632;51.276;7.116;2023-09-30T04:23:38;11.80;99.90
20946;DHT22;10632;51.276;7.116;2023-09-30T04:26:07;11.80;99.90
20946;DHT22;10632;51.276;7.116;2023-09-30T04:28:38;11.80;99.90
20946;DHT22;10632;51.276;7.116;2023-09-30T04:31:05;11.80;99.90
20946;DHT22;10632;51.276;7.116;2023-09-30T04:33:35;11.90;99.90
20946;DHT22;10632;51.276;7.116;2023-09-30T04:36:02;11.80;99.90
20946;DHT22;10632;51.276;7.116;2023-09-30T04:38:30;11.80;99.90
20946;DHT22;10632;51.276;7.116;2023-09-30T04:40:57;11.90;99.90
20946;DHT22;10632;51.276;7.116;2023-09-30T04:43:27;11.90;99.90
20946;DHT22;10632;51.276;7.116;2023-09-30T04:45:55;11.90;99.90
20946;DHT22;10632;51.276;7.116;2023-09-30T04:48:23;11.80;99.90
20946;DHT22;10632;51.276;7.116;2023-09-30T04:50:52;11.90;99.90
20946;DHT22;10632;51.276;7.116;2023-09-30T04:53:19;11.80;99.90
20946;DHT22;10632;51.276;7.116;2023-09-30T04:55:46;11.80;99.90
20946;DHT22;10632;51.276;7.116;2023-09-30T04:58:15;11.80;99.90
20946;DHT22;10632;51.276;7.116;2023-09-30T05:00:42;11.80;99.90
20946;DHT22;10632;51.276;7.116;2023-09-30T05:03:12;11.90;99.90
20946;DHT22;10632;51.276;7.116;2023-09-30T05:05:39;11.90;99.90
20946;DHT22;10632;51.276;7.116;2023-09-30T05:08:08;11.90;99.90
20946;DHT22;10632;51.276;7.116;2023-09-30T05:10:37;11.80;99.90
20946;DHT22;10632;51.276;7.116;2023-09-30T05:13:04;11.80;99.90
20946;DHT22;10632;51.276;7.116;2023-09-30T05:15:31;11.80;99.90
20946;DHT22;10632;51.276;7.116;2023-09-30T05:18:01;11.80;99.90
20946;DHT22;10632;51.276;7.116;2023-09-30T05:20:30;11.70;99.90
20946;DHT22;10632;51.276;7.116;2023-09-30T05:22:57;11.70;99.90
20946;DHT22;10632;51.276;7.116;2023-09-30T05:25:26;11.70;99.90
20946;DHT22;10632;51.276;7.116;2023-09-30T05:27:54;11.70;99.90
20946;DHT22;10632;51.276;7.116;2023-09-30T05:30:23;11.70;99.90
20946;DHT22;10632;51.276;7.116;2023-09-30T05:32:51;11.60;99.90
20946;DHT22;10632;51.276;7.116;2023-09-30T05:35:19;11.60;99.90
20946;DHT22;10632;51.276;7.116;2023-09-30T05:37:48;11.60;99.90
20946;DHT22;10632;51.276;7.116;2023-09-30T05:40:17;11.60;99.90
20946;DHT22;10632;51.276;7.116;2023-09-30T05:42:52;11.60;99.90
20946;DHT22;10632;51.276;7.116;2023-09-30T05:45:19;11.50;99.90
20946;DHT22;10632;51.276;7.116;2023-09-30T05:47:49;11.50;99.90
20946;DHT22;10632;51.276;7.116;2023-09-30T05:50:18;11.50;99.90
20946;DHT22;10632;51.276;7.116;2023-09-30T05:52:49;11.50;99.90
20946;DHT22;10632;51.276;7.116;2023-09-30T05:55:17;11.50;99.90
20946;DHT22;10632;51.276;7.116;2023-09-30T05:57:46;11.40;99.90
20946;DHT22;10632;51.276;7.116;2023-09-30T06:00:15;11.40;99.90
20946;DHT22;10632;51.276;7.116;2023-09-30T06:02:48;11.40;99.90
20946;DHT22;10632;51.276;7.116;2023-09-30T06:05:15;11.40;99.90
20946;DHT22;10632;51.276;7.116;2023-09-30T06:07:44;11.40;99.90
20946;DHT22;10632;51.276;7.116;2023-09-30T06:10:12;11.40;99.90
20946;DHT22;10632;51.276;7.116;2023-09-30T06:12:44;11.30;99.90
20946;DHT22;10632;51.276;7.116;2023-09-30T06:15:12;11.30;99.90
20946;DHT22;10632;51.276;7.116;2023-09-30T06:17:40;11.30;99.90
20946;DHT22;10632;51.276;7.116;2023-09-30T06:20:09;11.20;99.90
20946;DHT22;10632;51.276;7.116;2023-09-30T06:22:41;11.20;99.90
20946;DHT22;10632;51.276;7.116;2023-09-30T06:25:09;11.20;99.90
20946;DHT22;10632;51.276;7.116;2023-09-30T06:27:36;11.20;99.90
20946;DHT22;10632;51.276;7.116;2023-09-30T06:30:04;11.20;99.90
20946;DHT22;10632;51.276;7.116;2023-09-30T06:32:31;11.20;99.90
20946;DHT22;10632;51.276;7.116;2023-09-30T06:35:00;11.10;99.90
20946;DHT22;10632;51.276;7.116;2023-09-30T06:37:28;11.20;99.90
20946;DHT22;10632;51.276;7.116;2023-09-30T06:39:55;11.20;99.90
20946;DHT22;10632;51.276;7.116;2023-09-30T06:42:22;11.30;99.90
20946;DHT22;10632;51.276;7.116;2023-09-30T06:44:49;11.30;99.90
20946;DHT22;10632;51.276;7.116;2023-09-30T06:47:16;11.30;99.90
20946;DHT22;10632;51.276;7.116;2023-09-30T06:49:44;11.40;99.90
20946;DHT22;10632;51.276;7.116;2023-09-30T06:52:13;11.40;99.90
20946;DHT22;10632;51.276;7.116;2023-09-30T06:54:43;11.50;99.90
20946;DHT22;10632;51.276;7.116;2023-09-30T06:57:10;11.40;99.90
20946;DHT22;10632;51.276;7.116;2023-09-30T06:59:40;11.40;99.90
20946;DHT22;10632;51.276;7.116;2023-09-30T07:02:07;11.50;99.90
20946;DHT22;10632;51.276;7.116;2023-09-30T07:04:34;11.50;99.90
20946;DHT22;10632;51.276;7.116;2023-09-30T07:07:01;11.50;99.90
20946;DHT22;10632;51.276;7.116;2023-09-30T07:09:30;11.50;99.90
20946;DHT22;10632;51.276;7.116;2023-09-30T07:11:57;11.60;99.90
20946;DHT22;10632;51.276;7.116;2023-09-30T07:14:24;11.60;99.90
20946;DHT22;10632;51.276;7.116;2023-09-30T07:16:52;11.60;99.90
20946;DHT22;10632;51.276;7.116;2023-09-30T07:19:20;11.60;99.90
20946;DHT22;10632;51.276;7.116;2023-09-30T07:21:47;11.60;99.90
20946;DHT22;10632;51.276;7.116;2023-09-30T07:24:15;11.60;99.90
20946;DHT22;10632;51.276;7.116;2023-09-30T07:26:44;11.70;99.90
20946;DHT22;10632;51.276;7.116;2023-09-30T07:29:11;11.70;99.90
20946;DHT22;10632;51.276;7.116;2023-09-30T07:31:38;11.80;99.90
20946;DHT22;10632;51.276;7.116;2023-09-30T07:34:05;11.80;99.90
20946;DHT22;10632;51.276;7.116;2023-09-30T07:36:35;11.90;99.90
20946;DHT22;10632;51.276;7.116;2023-09-30T07:39:04;12.00;99.90
20946;DHT22;10632;51.276;7.116;2023-09-30T07:41:34;12.00;99.90
20946;DHT22;10632;51.276;7.116;2023-09-30T07:44:03;12.10;99.90
20946;DHT22;10632;51.276;7.116;2023-09-30T07:46:30;12.10;99.90
20946;DHT22;10632;51.276;7.116;2023-09-30T07:48:57;12.10;99.90
20946;DHT22;10632;51.276;7.116;2023-09-30T07:51:24;12.10;99.90
20946;DHT22;10632;51.276;7.116;2023-09-30T07:53:52;12.20;99.90
20946;DHT22;10632;51.276;7.116;2023-09-30T07:56:18;12.20;99.90
20946;DHT22;10632;51.276;7.116;2023-09-30T07:58:46;12.30;99.90
20946;DHT22;10632;51.276;7.116;2023-09-30T08:01:14;12.40;99.90
20946;DHT22;10632;51.276;7.116;2023-09-30T08:03:42;12.40;99.90
20946;DHT22;10632;51.276;7.116;2023-09-30T08:06:09;12.40;99.90
20946;DHT22;10632;51.276;7.116;2023-09-30T08:08:36;12.50;99.90
20946;DHT22;10632;51.276;7.116;2023-09-30T08:11:03;12.50;99.90
20946;DHT22;10632;51.276;7.116;2023-09-30T08:13:31;12.60;99.90
20946;DHT22;10632;51.276;7.116;2023-09-30T08:15:58;12.60;99.90
20946;DHT22;10632;51.276;7.116;2023-09-30T08:18:27;12.70;99.90
20946;DHT22;10632;51.276;7.116;2023-09-30T08:20:54;12.70;99.90
20946;DHT22;10632;51.276;7.116;2023-09-30T08:23:21;12.80;99.90
20946;DHT22;10632;51.276;7.116;2023-09-30T08:25:48;12.80;99.90
20946;DHT22;10632;51.276;7.116;2023-09-30T08:28:15;12.90;99.90
20946;DHT22;10632;51.276;7.116;2023-09-30T08:30:41;13.00;99.90
20946;DHT22;10632;51.276;7.116;2023-09-30T08:33:08;13.10;99.90
20946;DHT22;10632;51.276;7.116;2023-09-30T08:35:37;13.10;99.90
20946;DHT22;10632;51.276;7.116;2023-09-30T08:38:05;13.20;99.90
20946;DHT22;10632;51.276;7.116;2023-09-30T08:40:31;13.20;99.90
20946;DHT22;10632;51.276;7.116;2023-09-30T08:42:58;13.30;99.90
20946;DHT22;10632;51.276;7.116;2023-09-30T08:45:28;13.40;99.90
20946;DHT22;10632;51.276;7.116;2023-09-30T08:47:57;13.40;99.90
20946;DHT22;10632;51.276;7.116;2023-09-30T08:50:26;13.50;99.90
20946;DHT22;10632;51.276;7.116;2023-09-30T08:52:55;13.50;99.90
20946;DHT22;10632;51.276;7.116;2023-09-30T08:55:23;13.60;99.90
20946;DHT22;10632;51.276;7.116;2023-09-30T08:57:51;13.70;99.90
20946;DHT22;10632;51.276;7.116;2023-09-30T09:00:19;13.80;99.90
20946;DHT22;10632;51.276;7.116;2023-09-30T09:02:47;13.80;99.90
20946;DHT22;10632;51.276;7.116;2023-09-30T09:05:14;13.90;99.90
20946;DHT22;10632;51.276;7.116;2023-09-30T09:07:41;14.00;99.90
20946;DHT22;10632;51.276;7.116;2023-09-30T09:10:11;14.00;99.90
20946;DHT22;10632;51.276;7.116;2023-09-30T09:12:39;14.10;99.90
20946;DHT22;10632;51.276;7.116;2023-09-30T09:15:08;14.20;99.90
20946;DHT22;10632;51.276;7.116;2023-09-30T09:17:42;14.30;99.90
20946;DHT22;10632;51.276;7.116;2023-09-30T09:20:11;14.40;99.90
20946;DHT22;10632;51.276;7.116;2023-09-30T09:22:40;14.50;99.90
20946;DHT22;10632;51.276;7.116;2023-09-30T09:25:07;14.50;99.90
20946;DHT22;10632;51.276;7.116;2023-09-30T09:27:37;14.60;99.90
20946;DHT22;10632;51.276;7.116;2023-09-30T09:30:15;14.60;99.90
20946;DHT22;10632;51.276;7.116;2023-09-30T09:32:52;14.60;99.90
20946;DHT22;10632;51.276;7.116;2023-09-30T09:35:20;14.60;99.90
20946;DHT22;10632;51.276;7.116;2023-09-30T09:37:55;14.60;99.90
20946;DHT22;10632;51.276;7.116;2023-09-30T09:40:23;14.70;99.90
20946;DHT22;10632;51.276;7.116;2023-09-30T09:42:52;14.80;99.90
20946;DHT22;10632;51.276;7.116;2023-09-30T09:45:22;14.90;99.90
20946;DHT22;10632;51.276;7.116;2023-09-30T09:47:49;14.90;99.90
20946;DHT22;10632;51.276;7.116;2023-09-30T09:50:18;15.00;99.90
20946;DHT22;10632;51.276;7.116;2023-09-30T09:52:47;15.10;99.90
20946;DHT22;10632;51.276;7.116;2023-09-30T09:57:54;15.30;99.90
20946;DHT22;10632;51.276;7.116;2023-09-30T10:00:24;15.40;99.90
20946;DHT22;10632;51.276;7.116;2023-09-30T10:02:51;15.40;99.90
20946;DHT22;10632;51.276;7.116;2023-09-30T10:05:20;15.60;99.90
20946;DHT22;10632;51.276;7.116;2023-09-30T10:07:56;15.70;99.90
20946;DHT22;10632;51.276;7.116;2023-09-30T10:10:24;15.90;99.90
20946;DHT22;10632;51.276;7.116;2023-09-30T10:12:51;16.00;99.90
20946;DHT22;10632;51.276;7.116;2023-09-30T10:15:38;16.10;99.90
20946;DHT22;10632;51.276;7.116;2023-09-30T10:18:11;16.20;99.90
20946;DHT22;10632;51.276;7.116;2023-09-30T10:20:39;16.20;99.90
20946;DHT22;10632;51.276;7.116;2023-09-30T10:23:21;16.20;99.90
20946;DHT22;10632;51.276;7.116;2023-09-30T10:28:41;16.40;99.90
20946;DHT22;10632;51.276;7.116;2023-09-30T10:31:13;16.40;99.90
20946;DHT22;10632;51.276;7.116;2023-09-30T10:36:46;16.20;99.90
20946;DHT22;10632;51.276;7.116;2023-09-30T10:39:14;16.20;99.90
20946;DHT22;10632;51.276;7.116;2023-09-30T10:41:50;16.30;99.90
20946;DHT22;10632;51.276;7.116;2023-09-30T10:44:33;16.40;99.90
20946;DHT22;10632;51.276;7.116;2023-09-30T10:47:36;16.50;99.90
20946;DHT22;10632;51.276;7.116;2023-09-30T10:50:04;16.60;99.90
20946;DHT22;10632;51.276;7.116;2023-09-30T10:52:51;16.60;99.90
20946;DHT22;10632;51.276;7.116;2023-09-30T10:55:19;16.60;99.90
20946;DHT22;10632;51.276;7.116;2023-09-30T10:57:50;16.60;99.90
20946;DHT22;10632;51.276;7.116;2023-09-30T11:00:18;16.80;99.90
20946;DHT22;10632;51.276;7.116;2023-09-30T11:02:51;16.80;99.90
20946;DHT22;10632;51.276;7.116;2023-09-30T11:05:18;16.70;99.90
20946;DHT22;10632;51.276;7.116;2023-09-30T11:07:48;16.70;99.90
20946;DHT22;10632;51.276;7.116;2023-09-30T11:10:17;16.60;99.90
20946;DHT22;10632;51.276;7.116;2023-09-30T11:12:54;16.50;99.90
20946;DHT22;10632;51.276;7.116;2023-09-30T11:15:22;16.60;99.90
20946;DHT22;10632;51.276;7.116;2023-09-30T11:17:51;16.70;99.90
20946;DHT22;10632;51.276;7.116;2023-09-30T11:20:18;16.90;99.90
20946;DHT22;10632;51.276;7.116;2023-09-30T11:22:47;17.00;99.90
20946;DHT22;10632;51.276;7.116;2023-09-30T11:25:17;17.10;99.90
20946;DHT22;10632;51.276;7.116;2023-09-30T11:27:45;17.20;99.90
20946;DHT22;10632;51.276;7.116;2023-09-30T11:30:15;17.10;99.90
20946;DHT22;10632;51.276;7.116;2023-09-30T11:32:42;17.00;99.90
20946;DHT22;10632;51.276;7.116;2023-09-30T11:35:22;16.90;99.90
20946;DHT22;10632;51.276;7.116;2023-09-30T11:37:51;16.90;99.90
20946;DHT22;10632;51.276;7.116;2023-09-30T11:40:18;17.10;99.90
20946;DHT22;10632;51.276;7.116;2023-09-30T11:43:07;17.30;99.90
20946;DHT22;10632;51.276;7.116;2023-09-30T11:45:34;17.50;99.90
20946;DHT22;10632;51.276;7.116;2023-09-30T11:48:01;17.70;99.90
20946;DHT22;10632;51.276;7.116;2023-09-30T11:50:50;17.80;99.90
20946;DHT22;10632;51.276;7.116;2023-09-30T11:53:20;17.90;99.90
20946;DHT22;10632;51.276;7.116;2023-09-30T11:55:47;18.10;99.90
20946;DHT22;10632;51.276;7.116;2023-09-30T11:58:14;18.20;99.90
20946;DHT22;10632;51.276;7.116;2023-09-30T12:00:44;18.40;99.90
20946;DHT22;10632;51.276;7.116;2023-09-30T12:03:11;18.50;99.90
20946;DHT22;10632;51.276;7.116;2023-09-30T12:05:39;18.60;99.90
20946;DHT22;10632;51.276;7.116;2023-09-30T12:08:07;18.80;99.90
20946;DHT22;10632;51.276;7.116;2023-09-30T12:10:34;18.90;99.90
20946;DHT22;10632;51.276;7.116;2023-09-30T12:13:01;18.80;99.90
20946;DHT22;10632;51.276;7.116;2023-09-30T12:15:28;18.70;99.90
20946;DHT22;10632;51.276;7.116;2023-09-30T12:17:55;18.70;99.90
20946;DHT22;10632;51.276;7.116;2023-09-30T12:20:22;18.70;99.90
20946;DHT22;10632;51.276;7.116;2023-09-30T12:22:50;18.70;99.90
20946;DHT22;10632;51.276;7.116;2023-09-30T12:25:20;18.70;99.90
20946;DHT22;10632;51.276;7.116;2023-09-30T12:27:47;18.70;99.90
20946;DHT22;10632;51.276;7.116;2023-09-30T12:30:14;18.60;99.90
20946;DHT22;10632;51.276;7.116;2023-09-30T12:32:42;18.60;99.90
20946;DHT22;10632;51.276;7.116;2023-09-30T12:35:09;18.60;99.90
20946;DHT22;10632;51.276;7.116;2023-09-30T12:37:36;18.60;99.90
20946;DHT22;10632;51.276;7.116;2023-09-30T12:40:05;18.70;99.90
20946;DHT22;10632;51.276;7.116;2023-09-30T12:42:33;18.80;99.90
20946;DHT22;10632;51.276;7.116;2023-09-30T12:45:01;19.00;99.90
20946;DHT22;10632;51.276;7.116;2023-09-30T12:47:28;19.10;99.90
20946;DHT22;10632;51.276;7.116;2023-09-30T12:49:55;19.20;99.90
20946;DHT22;10632;51.276;7.116;2023-09-30T12:52:22;19.40;99.90
20946;DHT22;10632;51.276;7.116;2023-09-30T12:54:49;19.50;99.90
20946;DHT22;10632;51.276;7.116;2023-09-30T12:57:20;19.50;99.90
20946;DHT22;10632;51.276;7.116;2023-09-30T12:59:48;19.30;99.90
20946;DHT22;10632;51.276;7.116;2023-09-30T13:02:15;19.20;99.90
20946;DHT22;10632;51.276;7.116;2023-09-30T13:04:43;19.10;99.90
20946;DHT22;10632;51.276;7.116;2023-09-30T13:07:11;19.00;99.90
20946;DHT22;10632;51.276;7.116;2023-09-30T13:09:39;19.00;99.90
20946;DHT22;10632;51.276;7.116;2023-09-30T13:12:06;19.10;99.90
20946;DHT22;10632;51.276;7.116;2023-09-30T13:14:33;19.20;99.90
20946;DHT22;10632;51.276;7.116;2023-09-30T13:17:02;19.10;99.90
20946;DHT22;10632;51.276;7.116;2023-09-30T13:19:29;18.90;99.90
20946;DHT22;10632;51.276;7.116;2023-09-30T13:21:58;18.80;99.90
20946;DHT22;10632;51.276;7.116;2023-09-30T13:24:25;18.60;99.90
20946;DHT22;10632;51.276;7.116;2023-09-30T13:26:55;18.60;99.90
20946;DHT22;10632;51.276;7.116;2023-09-30T13:29:28;18.60;99.90
20946;DHT22;10632;51.276;7.116;2023-09-30T13:31:54;18.60;99.90
20946;DHT22;10632;51.276;7.116;2023-09-30T13:34:23;18.50;99.90
20946;DHT22;10632;51.276;7.116;2023-09-30T13:36:50;18.40;99.90
20946;DHT22;10632;51.276;7.116;2023-09-30T13:39:17;18.20;99.90
20946;DHT22;10632;51.276;7.116;2023-09-30T13:41:44;18.10;99.90
20946;DHT22;10632;51.276;7.116;2023-09-30T13:44:12;17.90;99.90
20946;DHT22;10632;51.276;7.116;2023-09-30T13:46:39;17.80;99.90
20946;DHT22;10632;51.276;7.116;2023-09-30T13:49:07;17.70;99.90
20946;DHT22;10632;51.276;7.116;2023-09-30T13:51:36;17.70;99.90
20946;DHT22;10632;51.276;7.116;2023-09-30T13:54:04;17.70;99.90
20946;DHT22;10632;51.276;7.116;2023-09-30T13:56:32;17.70;99.90
20946;DHT22;10632;51.276;7.116;2023-09-30T13:58:59;17.70;99.90
20946;DHT22;10632;51.276;7.116;2023-09-30T14:01:26;17.70;99.90
20946;DHT22;10632;51.276;7.116;2023-09-30T14:03:54;17.60;99.90
20946;DHT22;10632;51.276;7.116;2023-09-30T14:06:22;17.60;99.90
20946;DHT22;10632;51.276;7.116;2023-09-30T14:08:51;17.60;99.90
20946;DHT22;10632;51.276;7.116;2023-09-30T14:11:18;17.60;99.90
20946;DHT22;10632;51.276;7.116;2023-09-30T14:13:45;17.50;99.90
20946;DHT22;10632;51.276;7.116;2023-09-30T14:16:12;17.50;99.90
20946;DHT22;10632;51.276;7.116;2023-09-30T14:18:39;17.40;99.90
20946;DHT22;10632;51.276;7.116;2023-09-30T14:21:06;17.40;99.90
20946;DHT22;10632;51.276;7.116;2023-09-30T14:23:33;17.30;99.90
20946;DHT22;10632;51.276;7.116;2023-09-30T14:26:01;17.30;99.90
20946;DHT22;10632;51.276;7.116;2023-09-30T14:28:32;17.30;99.90
20946;DHT22;10632;51.276;7.116;2023-09-30T14:31:02;17.30;99.90
20946;DHT22;10632;51.276;7.116;2023-09-30T14:33:29;17.30;99.90
20946;DHT22;10632;51.276;7.116;2023-09-30T14:35:56;17.40;99.90
20946;DHT22;10632;51.276;7.116;2023-09-30T14:38:23;17.30;99.90
20946;DHT22;10632;51.276;7.116;2023-09-30T14:40:51;17.30;99.90
20946;DHT22;10632;51.276;7.116;2023-09-30T14:43:19;17.20;99.90
20946;DHT22;10632;51.276;7.116;2023-09-30T14:45:46;17.20;99.90
20946;DHT22;10632;51.276;7.116;2023-09-30T14:48:13;17.20;99.90
20946;DHT22;10632;51.276;7.116;2023-09-30T14:50:48;17.10;99.90
20946;DHT22;10632;51.276;7.116;2023-09-30T14:53:15;17.10;99.90
20946;DHT22;10632;51.276;7.116;2023-09-30T14:55:42;17.10;99.90
20946;DHT22;10632;51.276;7.116;2023-09-30T14:58:09;17.10;99.90
20946;DHT22;10632;51.276;7.116;2023-09-30T15:00:37;17.10;99.90
20946;DHT22;10632;51.276;7.116;2023-09-30T15:03:04;17.10;99.90
20946;DHT22;10632;51.276;7.116;2023-09-30T15:05:31;17.10;99.90
20946;DHT22;10632;51.276;7.116;2023-09-30T15:07:58;17.00;99.90
20946;DHT22;10632;51.276;7.116;2023-09-30T15:10:27;17.00;99.90
20946;DHT22;10632;51.276;7.116;2023-09-30T15:12:54;17.00;99.90
20946;DHT22;10632;51.276;7.116;2023-09-30T15:15:23;17.00;99.90
20946;DHT22;10632;51.276;7.116;2023-09-30T15:17:52;17.00;99.90
20946;DHT22;10632;51.276;7.116;2023-09-30T15:20:20;17.00;99.90
20946;DHT22;10632;51.276;7.116;2023-09-30T15:22:47;17.00;99.90
20946;DHT22;10632;51.276;7.116;2023-09-30T15:25:14;17.00;99.90
20946;DHT22;10632;51.276;7.116;2023-09-30T15:27:42;17.00;99.90
20946;DHT22;10632;51.276;7.116;2023-09-30T15:30:10;17.00;99.90
20946;DHT22;10632;51.276;7.116;2023-09-30T15:32:39;17.00;99.90
20946;DHT22;10632;51.276;7.116;2023-09-30T15:35:08;17.00;99.90
20946;DHT22;10632;51.276;7.116;2023-09-30T15:37:35;16.90;99.90
20946;DHT22;10632;51.276;7.116;2023-09-30T15:40:03;16.90;99.90
20946;DHT22;10632;51.276;7.116;2023-09-30T15:42:30;16.90;99.90
20946;DHT22;10632;51.276;7.116;2023-09-30T15:44:57;16.90;99.90
20946;DHT22;10632;51.276;7.116;2023-09-30T15:47:23;16.80;99.90